createdAt,value
2018-05-10T00:00:29.597Z,43.13
2018-05-10T00:03:02.098Z,43.37
2018-05-10T00:05:33.863Z,40.93
2018-05-10T00:08:05.074Z,43.00
2018-05-10T00:10:35.455Z,40.10
2018-05-10T00:13:07.853Z,37.80
2018-05-10T00:15:37.682Z,42.03
2018-05-10T00:18:08.261Z,44.57
2018-05-10T00:20:41.477Z,35.93
2018-05-10T00:23:11.359Z,32.30
2018-05-10T00:25:42.168Z,35.50
2018-05-10T00:28:12.593Z,35.03
2018-05-10T00:30:45.522Z,31.57
2018-05-10T00:33:15.460Z,30.33
2018-05-10T00:35:45.444Z,34.00
2018-05-10T00:38:18.645Z,29.10
2018-05-10T00:40:48.473Z,30.13
2018-05-10T00:43:18.508Z,21.77
2018-05-10T00:45:49.759Z,25.80
2018-05-10T00:48:19.738Z,23.40
2018-05-10T00:50:49.550Z,24.60
2018-05-10T00:53:19.562Z,20.70
2018-05-10T00:55:49.425Z,20.40
2018-05-10T00:58:19.590Z,18.57
2018-05-10T01:00:49.954Z,19.87
2018-05-10T01:03:21.944Z,22.63
2018-05-10T01:05:52.403Z,22.00
2018-05-10T01:08:23.694Z,19.53
2018-05-10T01:10:54.738Z,28.80
2018-05-10T01:13:24.963Z,27.17
2018-05-10T01:15:54.892Z,26.13
2018-05-10T01:18:25.316Z,27.03
2018-05-10T01:20:55.573Z,26.70
2018-05-10T01:23:26.905Z,26.13
2018-05-10T01:25:57.492Z,21.03
2018-05-10T01:28:27.452Z,20.67
2018-05-10T01:30:58.190Z,21.37
2018-05-10T01:33:31.294Z,21.73
2018-05-10T01:36:13.506Z,30.07
2018-05-10T01:38:45.627Z,29.83
2018-05-10T01:41:17.833Z,21.50
2018-05-10T01:43:50.730Z,23.10
2018-05-10T01:46:20.574Z,21.60
2018-05-10T01:48:50.955Z,23.63
2018-05-10T01:51:22.074Z,29.47
2018-05-10T01:53:52.167Z,36.37
2018-05-10T01:56:22.044Z,39.77
2018-05-10T01:58:54.458Z,29.77
2018-05-10T02:01:25.607Z,27.10
2018-05-10T02:03:55.741Z,38.63
2018-05-10T02:06:27.610Z,35.23
2018-05-10T02:08:58.865Z,34.10
2018-05-10T02:11:29.612Z,37.30
2018-05-10T02:13:59.967Z,35.25
2018-05-10T02:16:30.171Z,41.05
2018-05-10T02:19:00.148Z,32.80
2018-05-10T02:21:31.136Z,37.63
2018-05-10T02:24:01.026Z,36.73
2018-05-10T02:26:30.857Z,35.65
2018-05-10T02:29:00.675Z,33.65
2018-05-10T02:31:30.742Z,37.70
2018-05-10T02:34:01.820Z,35.70
2018-05-10T02:36:32.241Z,38.07
2018-05-10T02:39:02.184Z,32.93
2018-05-10T02:41:33.215Z,39.08
2018-05-10T02:44:04.467Z,32.00
2018-05-10T02:46:34.474Z,37.00
2018-05-10T02:49:04.443Z,36.38
2018-05-10T02:51:35.365Z,35.35
2018-05-10T02:54:05.709Z,34.30
2018-05-10T02:56:36.719Z,41.75
2018-05-10T02:59:07.901Z,34.95
2018-05-10T03:01:38.543Z,31.42
2018-05-10T03:04:10.380Z,37.72
2018-05-10T03:06:40.211Z,39.67
2018-05-10T03:09:11.955Z,35.80
2018-05-10T03:11:41.778Z,33.17
2018-05-10T03:14:12.395Z,33.15
2018-05-10T03:16:43.140Z,29.33
2018-05-10T03:19:13.650Z,31.30
2018-05-10T03:21:43.926Z,33.08
2018-05-10T03:24:16.171Z,34.20
2018-05-10T03:26:47.198Z,30.00
2018-05-10T03:29:20.108Z,25.48
2018-05-10T03:31:50.264Z,23.70
2018-05-10T03:34:20.183Z,31.95
2018-05-10T03:36:50.428Z,22.13
2018-05-10T03:39:22.334Z,25.92
2018-05-10T03:41:54.020Z,22.37
2018-05-10T03:44:24.122Z,20.95
2018-05-10T03:46:56.432Z,18.77
2018-05-10T03:49:28.524Z,16.90
2018-05-10T03:51:59.278Z,30.12
2018-05-10T03:54:29.330Z,32.58
2018-05-10T03:57:00.589Z,24.85
2018-05-10T03:59:30.542Z,25.00
2018-05-10T04:02:00.624Z,20.75
2018-05-10T04:04:42.201Z,28.05
2018-05-10T04:07:23.490Z,26.92
2018-05-10T04:10:04.595Z,20.80
2018-05-10T04:12:35.384Z,24.67
2018-05-10T04:15:05.757Z,22.65
2018-05-10T04:17:38.445Z,18.60
2018-05-10T04:20:10.686Z,24.75
2018-05-10T04:22:41.996Z,24.80
2018-05-10T04:25:11.786Z,21.67
2018-05-10T04:27:41.505Z,29.58
2018-05-10T04:30:13.356Z,23.55
2018-05-10T04:32:44.453Z,33.72
2018-05-10T04:35:16.581Z,29.10
2018-05-10T04:37:46.358Z,27.70
2018-05-10T04:40:17.482Z,28.83
2018-05-10T04:42:48.500Z,29.87
2018-05-10T04:45:19.111Z,25.80
2018-05-10T04:47:49.399Z,24.60
2018-05-10T04:50:19.478Z,31.20
2018-05-10T04:52:49.839Z,31.45
2018-05-10T04:55:21.783Z,29.50
2018-05-10T04:57:51.909Z,25.40
2018-05-10T05:00:22.621Z,30.88
2018-05-10T05:02:52.317Z,27.05
2018-05-10T05:05:23.564Z,25.27
2018-05-10T05:07:53.589Z,29.45
2018-05-10T05:10:23.722Z,25.80
2018-05-10T05:12:54.365Z,22.70
2018-05-10T05:15:27.305Z,25.17
2018-05-10T05:17:58.579Z,25.55
2018-05-10T05:20:29.821Z,26.10
2018-05-10T05:22:59.862Z,34.55
2018-05-10T05:25:31.175Z,29.42
2018-05-10T05:28:02.160Z,24.70
2018-05-10T05:30:34.274Z,23.08
2018-05-10T05:33:04.452Z,20.08
2018-05-10T05:35:34.687Z,24.42
2018-05-10T05:38:06.910Z,22.05
2018-05-10T05:40:36.981Z,19.20
2018-05-10T05:43:08.053Z,20.63
2018-05-10T05:45:38.051Z,25.90
2018-05-10T05:48:08.353Z,17.80
2018-05-10T05:50:38.838Z,24.25
2018-05-10T05:53:09.388Z,16.27
2018-05-10T05:55:40.523Z,20.53
2018-05-10T05:58:10.278Z,27.20
2018-05-10T06:00:41.426Z,24.00
2018-05-10T06:03:11.264Z,32.57
2018-05-10T06:05:41.402Z,23.63
2018-05-10T06:08:11.249Z,19.80
2018-05-10T06:10:43.523Z,17.03
2018-05-10T06:13:14.738Z,18.90
2018-05-10T06:15:47.044Z,19.43
2018-05-10T06:18:17.511Z,14.50
2018-05-10T06:20:47.784Z,17.53
2018-05-10T06:23:18.136Z,18.30
2018-05-10T06:25:48.081Z,20.60
2018-05-10T06:28:18.357Z,13.03
2018-05-10T06:30:49.168Z,14.87
2018-05-10T06:33:19.855Z,15.32
2018-05-10T08:14:42.670Z,13.70
2018-05-10T08:17:24.120Z,6.53
2018-05-10T08:20:01.928Z,5.70
2018-05-10T08:22:31.051Z,6.97
2018-05-10T08:25:09.705Z,6.40
2018-05-10T08:27:50.187Z,6.23
2018-05-10T08:30:29.213Z,4.00
2018-05-10T08:33:05.778Z,8.17
2018-05-10T08:35:50.287Z,5.87
2018-05-10T08:38:27.514Z,8.27
2018-05-10T08:41:00.533Z,9.83
2018-05-10T08:43:29.580Z,4.30
2018-05-10T08:46:06.419Z,10.83
2018-05-10T08:48:44.998Z,9.52
2018-05-10T08:51:14.941Z,13.73
2018-05-10T08:53:44.647Z,10.52
2018-05-10T08:56:14.734Z,10.55
2018-05-10T08:58:45.608Z,13.23
2018-05-10T09:01:23.904Z,17.02
2018-05-10T09:03:53.984Z,6.70
2018-05-10T09:06:32.451Z,5.53
2018-05-10T09:09:10.239Z,8.87
2018-05-10T09:11:41.159Z,8.10
2018-05-10T09:14:18.619Z,10.70
2018-05-10T09:16:56.031Z,10.20
2018-05-10T09:19:33.948Z,11.20
2018-05-10T09:22:12.030Z,6.50
2018-05-10T09:24:49.572Z,9.27
2018-05-10T09:27:25.808Z,11.17
2018-05-10T09:30:02.502Z,9.20
2018-05-10T09:32:40.140Z,8.23
2018-05-10T09:35:10.604Z,10.77
2018-05-10T09:37:41.594Z,10.37
2018-05-10T09:40:12.530Z,8.63
2018-05-10T09:42:48.829Z,13.17
2018-05-10T09:45:24.365Z,8.80
2018-05-10T09:48:00.829Z,14.00
2018-05-10T09:50:36.214Z,16.33
2018-05-10T09:53:13.329Z,8.50
2018-05-10T09:55:44.203Z,13.67
2018-05-10T09:58:15.813Z,17.60
2018-05-10T10:00:46.615Z,16.30
2018-05-10T10:03:17.325Z,13.37
2018-05-10T10:05:49.519Z,24.57
2018-05-10T10:08:19.665Z,13.60
2018-05-10T10:10:50.174Z,14.50
2018-05-10T10:13:21.192Z,15.90
2018-05-10T10:15:52.099Z,20.83
2018-05-10T10:18:21.208Z,20.27
2018-05-10T10:20:56.447Z,23.47
2018-05-10T10:23:27.732Z,25.00
2018-05-10T10:25:58.516Z,26.60
2018-05-10T10:28:28.588Z,21.10
2018-05-10T10:30:59.546Z,20.10
2018-05-10T10:33:31.806Z,22.87
2018-05-10T10:36:02.955Z,29.15
2018-05-10T10:38:33.991Z,26.65
2018-05-10T10:41:05.017Z,22.98
2018-05-10T10:43:35.936Z,21.37
2018-05-10T10:46:12.244Z,27.23
2018-05-10T10:48:48.386Z,22.17
2018-05-10T10:51:18.824Z,26.23
2018-05-10T10:53:54.645Z,20.33
2018-05-10T10:56:26.216Z,32.53
2018-05-10T10:59:05.170Z,22.15
2018-05-10T11:01:34.696Z,22.23
2018-05-10T11:04:12.845Z,22.25
2018-05-10T11:06:51.071Z,24.12
2018-05-10T11:09:28.844Z,20.35
2018-05-10T11:12:07.075Z,26.52
2018-05-10T11:14:38.328Z,24.67
2018-05-10T11:17:09.388Z,26.67
2018-05-10T11:19:48.773Z,24.43
2018-05-10T11:22:26.507Z,38.17
2018-05-10T11:25:05.758Z,24.08
2018-05-10T11:27:46.172Z,23.80
2018-05-10T11:30:16.106Z,22.53
2018-05-10T11:32:54.974Z,29.73
2018-05-10T11:35:32.821Z,26.93
2018-05-10T11:38:05.490Z,23.73
2018-05-10T11:40:44.433Z,25.83
2018-05-10T11:43:21.940Z,18.50
2018-05-10T11:45:53.081Z,19.67
2018-05-10T11:48:26.045Z,29.10
2018-05-10T11:51:10.526Z,27.80
2018-05-10T11:53:48.769Z,26.90
2018-05-10T11:56:26.059Z,25.27
2018-05-10T11:59:03.053Z,29.40
2018-05-10T12:01:33.415Z,49.37
2018-05-10T12:04:11.441Z,28.93
2018-05-10T12:06:42.326Z,36.07
2018-05-10T12:09:20.361Z,24.93
2018-05-10T12:11:57.922Z,24.90
2018-05-10T12:14:32.001Z,34.23
2018-05-10T12:17:10.896Z,29.27
2018-05-10T12:19:47.878Z,28.60
2018-05-10T12:22:26.177Z,31.90
2018-05-10T12:25:04.162Z,31.23
2018-05-10T12:27:36.554Z,28.90
2018-05-10T12:30:15.371Z,28.30
2018-05-10T12:32:52.585Z,26.03
2018-05-10T12:35:30.968Z,26.70
2018-05-10T12:38:03.721Z,25.77
2018-05-10T12:40:43.322Z,32.10
2018-05-10T12:43:21.690Z,33.17
2018-05-10T12:46:01.001Z,28.43
2018-05-10T12:48:31.997Z,29.63
2018-05-10T12:51:10.309Z,27.97
2018-05-10T12:53:47.704Z,32.50
2018-05-10T12:56:23.907Z,24.37
2018-05-10T12:59:02.952Z,28.87
2018-05-10T13:01:41.868Z,22.40
2018-05-10T13:04:13.997Z,26.00
2018-05-10T13:06:52.070Z,31.63
2018-05-10T13:09:23.260Z,29.90
2018-05-10T13:11:54.793Z,23.53
2018-05-10T13:14:31.513Z,31.60
2018-05-10T13:17:14.798Z,18.27
2018-05-10T13:19:54.317Z,23.00
2018-05-10T13:22:32.141Z,25.00
2018-05-10T13:25:09.982Z,24.47
2018-05-10T13:27:39.807Z,31.63
2018-05-10T13:30:17.760Z,26.83
2018-05-10T13:32:55.161Z,29.97
2018-05-10T13:35:32.733Z,24.20
2018-05-10T13:38:12.095Z,22.67
2018-05-10T13:40:50.883Z,22.67
2018-05-10T13:43:21.039Z,29.27
2018-05-10T13:45:53.515Z,18.57
2018-05-10T13:48:23.518Z,19.00
2018-05-10T13:51:03.383Z,21.47
2018-05-10T13:53:42.193Z,18.53
2018-05-10T13:56:14.007Z,23.57
2018-05-10T13:58:54.270Z,14.80
2018-05-10T14:01:39.569Z,14.67
2018-05-10T14:04:16.576Z,13.80
2018-05-10T14:06:55.778Z,15.83
2018-05-10T14:09:34.701Z,13.70
2018-05-10T14:12:13.827Z,13.30
2018-05-10T14:14:54.258Z,18.47
2018-05-10T14:17:33.529Z,19.00
2018-05-10T14:20:11.448Z,17.70
2018-05-10T14:22:41.381Z,13.80
2018-05-10T14:25:20.477Z,14.70
2018-05-10T14:27:58.843Z,14.70
2018-05-10T14:30:39.700Z,9.57
2018-05-10T14:33:17.752Z,14.23
2018-05-10T14:35:48.304Z,10.97
2018-05-10T14:38:27.024Z,11.20
2018-05-10T14:41:04.379Z,9.80
2018-05-10T14:43:44.796Z,7.93
2018-05-10T14:46:14.447Z,9.03
2018-05-10T14:48:52.393Z,15.03
2018-05-10T14:51:33.534Z,11.23
2018-05-10T14:54:11.550Z,11.87
2018-05-10T14:56:48.967Z,15.57
2018-05-10T14:59:31.759Z,12.43
2018-05-10T15:02:09.452Z,9.03
2018-05-10T15:04:40.032Z,5.97
2018-05-10T15:07:18.808Z,11.93
2018-05-10T15:10:02.068Z,8.93
2018-05-10T15:12:40.634Z,10.00
2018-05-10T15:15:10.638Z,8.73
2018-05-10T15:17:49.294Z,12.23
2018-05-10T15:20:27.377Z,13.50
2018-05-10T15:22:57.536Z,13.93
2018-05-10T15:25:38.530Z,20.03
2018-05-10T15:28:08.229Z,7.27
2018-05-10T15:30:47.279Z,13.80
2018-05-10T15:33:24.319Z,7.70
2018-05-10T15:36:05.472Z,14.90
2018-05-10T15:38:43.937Z,5.73
2018-05-10T15:41:21.428Z,15.33
2018-05-10T15:43:57.005Z,13.30
2018-05-10T15:46:28.265Z,8.30
2018-05-10T15:49:00.143Z,11.80
2018-05-10T15:51:31.029Z,6.70
2018-05-10T15:54:03.587Z,6.20
2018-05-10T15:56:35.211Z,6.23
2018-05-10T15:59:06.426Z,8.13
2018-05-10T16:43:31.313Z,6.07
2018-05-10T16:46:02.055Z,9.57
2018-05-10T16:48:33.316Z,6.50
2018-05-10T16:51:04.542Z,10.80
2018-05-10T16:53:35.933Z,36.87
2018-05-10T16:56:06.340Z,8.40
2018-05-10T16:58:35.829Z,5.83
2018-05-10T17:01:06.385Z,9.17
2018-05-10T17:03:38.940Z,5.87
2018-05-10T17:06:09.288Z,3.70
2018-05-10T17:08:39.327Z,7.80
2018-05-10T17:11:09.585Z,9.30
2018-05-10T17:13:40.754Z,5.20
2018-05-10T17:16:11.114Z,6.30
2018-05-10T17:18:41.414Z,7.03
2018-05-10T17:21:12.770Z,5.73
2018-05-10T17:23:43.503Z,11.70
2018-05-10T17:26:13.322Z,7.13
2018-05-10T17:28:43.994Z,8.47
2018-05-10T17:31:14.497Z,5.53
2018-05-10T17:33:45.895Z,8.90
2018-05-10T17:36:17.754Z,5.07
2018-05-10T17:38:48.969Z,6.10
2018-05-10T17:41:19.338Z,4.87
2018-05-10T17:43:49.266Z,11.40
2018-05-10T17:46:19.761Z,7.00
2018-05-10T17:48:51.145Z,15.20
2018-05-10T17:51:22.265Z,4.63
2018-05-10T17:53:53.703Z,6.10
2018-05-10T17:56:24.916Z,6.87
2018-05-10T17:58:55.606Z,4.03
2018-05-10T18:01:28.179Z,5.30
2018-05-10T18:03:58.432Z,8.83
2018-05-10T18:06:28.838Z,7.93
2018-05-10T18:09:01.414Z,7.67
2018-05-10T18:11:34.579Z,6.17
2018-05-10T18:14:06.342Z,6.23
2018-05-10T18:16:36.569Z,6.33
2018-05-10T18:19:06.431Z,6.93
2018-05-10T18:21:39.298Z,6.73
2018-05-10T18:24:09.928Z,5.57
2018-05-10T18:26:39.787Z,4.83
2018-05-10T18:29:11.482Z,6.20
2018-05-10T18:31:42.732Z,6.40
2018-05-10T18:34:13.305Z,6.20
2018-05-10T18:36:43.280Z,3.77
2018-05-10T18:39:15.858Z,4.43
2018-05-10T18:41:46.356Z,6.30
2018-05-10T18:44:16.804Z,8.37
2018-05-10T18:46:49.464Z,8.03
2018-05-10T18:49:20.272Z,8.57
2018-05-10T18:51:53.974Z,4.90
2018-05-10T18:54:24.350Z,5.83
2018-05-10T18:56:55.068Z,7.62
2018-05-10T18:59:28.104Z,3.93
2018-05-10T19:01:57.973Z,5.07
2018-05-10T19:04:27.870Z,6.10
2018-05-10T19:06:59.344Z,5.30
2018-05-10T19:09:31.914Z,6.03
2018-05-10T19:12:07.406Z,6.78
2018-05-10T19:14:37.350Z,5.05
2018-05-10T19:17:08.109Z,10.38
2018-05-10T19:19:40.405Z,11.90
2018-05-10T19:22:15.201Z,5.05
2018-05-10T19:24:45.106Z,13.00
2018-05-10T19:27:18.838Z,6.35
2018-05-10T19:29:50.938Z,10.88
2018-05-10T19:32:21.329Z,12.57
2018-05-10T19:34:52.058Z,13.20
2018-05-10T19:37:22.766Z,8.93
2018-05-10T19:39:53.152Z,11.57
2018-05-10T19:42:25.700Z,6.10
2018-05-10T19:44:56.283Z,7.47
2018-05-10T19:47:27.745Z,7.32
2018-05-10T19:49:58.642Z,6.07
2018-05-10T19:52:29.406Z,7.78
2018-05-10T19:55:01.894Z,8.10
2018-05-10T19:57:34.969Z,7.43
2018-05-10T20:00:07.194Z,7.43
2018-05-10T20:02:39.569Z,6.93
2018-05-10T20:05:10.090Z,9.45
2018-05-10T20:07:40.464Z,12.50
2018-05-10T20:10:13.818Z,8.85
2018-05-10T20:12:43.594Z,9.55
2018-05-10T20:15:13.329Z,7.72
2018-05-10T20:17:43.254Z,8.50
2018-05-10T20:20:13.672Z,7.05
2018-05-10T20:22:43.576Z,22.35
2018-05-10T20:25:14.208Z,8.43
2018-05-10T20:27:44.005Z,7.50
2018-05-10T20:30:14.575Z,10.90
2018-05-10T20:32:45.033Z,12.60
2018-05-10T20:35:15.406Z,10.35
2018-05-10T20:37:45.337Z,7.10
2018-05-10T20:40:15.091Z,8.35
2018-05-10T20:42:46.947Z,13.32
2018-05-10T20:45:16.815Z,11.90
2018-05-10T20:47:47.284Z,11.50
2018-05-10T20:50:17.962Z,13.15
2018-05-10T20:52:48.438Z,9.38
2018-05-10T20:55:18.667Z,7.93
2018-05-10T20:57:49.523Z,10.70
2018-05-10T21:00:20.537Z,14.60
2018-05-10T21:02:50.786Z,12.88
2018-05-10T21:05:21.292Z,10.40
2018-05-10T21:07:51.430Z,10.20
2018-05-10T21:10:22.014Z,7.97
2018-05-10T21:12:52.386Z,8.88
2018-05-10T21:15:23.351Z,10.75
2018-05-10T21:17:53.050Z,10.75
2018-05-10T21:20:23.346Z,14.43
2018-05-10T21:22:53.467Z,12.48
2018-05-10T21:25:23.795Z,11.27
2018-05-10T21:27:54.812Z,12.82
2018-05-10T21:30:24.651Z,16.73
2018-05-10T21:32:55.783Z,10.07
2018-05-10T21:35:26.786Z,10.75
2018-05-10T21:37:57.320Z,9.25
2018-05-10T21:40:27.728Z,12.75
2018-05-10T21:42:57.408Z,11.00
2018-05-10T21:45:29.345Z,14.73
2018-05-10T21:47:59.613Z,14.75
2018-05-10T21:50:30.041Z,21.75
2018-05-10T21:53:00.532Z,11.23
2018-05-10T21:55:32.612Z,11.45
2018-05-10T21:58:05.572Z,15.35
2018-05-10T22:00:35.880Z,17.37
2018-05-10T22:03:07.955Z,13.05
2018-05-10T22:05:37.876Z,18.73
2018-05-10T22:08:08.240Z,13.85
2018-05-10T22:10:38.436Z,16.02
2018-05-10T22:13:08.887Z,17.65
2018-05-10T22:15:38.673Z,9.70
2018-05-10T22:18:09.129Z,11.18
2018-05-10T22:20:39.384Z,16.08
2018-05-10T22:23:10.342Z,10.90
2018-05-10T22:25:40.522Z,9.75
2018-05-10T22:28:10.874Z,13.60
2018-05-10T22:30:42.613Z,14.25
2018-05-10T22:33:13.152Z,13.35
2018-05-10T22:35:46.058Z,17.17
2018-05-10T22:38:16.267Z,13.38
2018-05-10T22:40:45.812Z,18.87
2018-05-10T22:43:16.927Z,14.25
2018-05-10T22:45:46.745Z,16.50
2018-05-10T22:48:16.962Z,13.20
2018-05-10T22:50:46.667Z,14.95
2018-05-10T22:53:18.736Z,13.52
2018-05-10T22:55:48.763Z,12.15
2018-05-10T22:58:18.491Z,10.20
2018-05-10T23:00:48.761Z,15.57
2018-05-10T23:03:19.781Z,16.25
2018-05-10T23:05:49.876Z,26.85
2018-05-10T23:08:23.032Z,11.80
2018-05-10T23:10:53.060Z,13.18
2018-05-10T23:13:23.403Z,14.63
2018-05-10T23:15:53.771Z,12.13
2018-05-10T23:18:24.132Z,14.10
2018-05-10T23:20:56.099Z,14.07
2018-05-10T23:23:28.184Z,11.98
2018-05-10T23:25:59.115Z,12.40
2018-05-10T23:28:30.293Z,16.90
2018-05-10T23:31:00.609Z,13.27
2018-05-10T23:33:31.366Z,15.73
2018-05-10T23:36:01.036Z,14.43
2018-05-10T23:38:32.426Z,12.18
2018-05-10T23:41:02.468Z,12.07
2018-05-10T23:43:32.611Z,14.50
2018-05-10T23:46:02.898Z,18.50
2018-05-10T23:48:33.180Z,14.82
2018-05-10T23:51:04.187Z,10.73
2018-05-10T23:53:36.227Z,16.35
2018-05-10T23:56:06.725Z,17.50
2018-05-10T23:58:36.948Z,11.50
